Time;durP1;ratioP1;P1;durP2;ratioP2;P2;SDS_P1;SDS_P2;PMS_P1;PMS_P2;Temp;Humidity;BMP_temperature;BMP_pressure;BME280_temperature;BME280_humidity;BME280_pressure;Samples;Min_cycle;Max_cycle;Signal;HPM_P1;HPM_P2
2021/11/02 00:00:17;;;;;;;31.15;13.35;;;;;;;5.50;100.00;94511.53;5045117;28;20049;-67
2021/11/02 00:02:44;;;;;;;33.92;13.55;;;;;;;5.47;100.00;94509.34;5043896;28;20056;-68
2021/11/02 00:05:13;;;;;;;34.10;15.73;;;;;;;5.47;100.00;94500.81;5043974;28;20116;-68
2021/11/02 00:07:40;;;;;;;41.10;16.65;;;;;;;5.50;100.00;94496.03;5044780;28;20107;-68
2021/11/02 00:10:08;;;;;;;34.42;17.02;;;;;;;5.54;100.00;94499.78;5043832;28;20044;-68
2021/11/02 00:12:35;;;;;;;30.63;15.05;;;;;;;5.61;100.00;94506.72;5043797;28;20037;-68
2021/11/02 00:15:05;;;;;;;34.25;15.70;;;;;;;5.66;100.00;94504.31;5042141;28;20090;-68
2021/11/02 00:17:35;;;;;;;46.67;17.38;;;;;;;5.72;100.00;94493.91;5043883;28;20519;-68
2021/11/02 00:20:04;;;;;;;36.20;17.73;;;;;;;5.77;100.00;94480.38;5045126;28;20033;-68
2021/11/02 00:22:34;;;;;;;37.70;18.08;;;;;;;5.80;100.00;94482.56;5043804;28;20044;-68
2021/11/02 00:25:06;;;;;;;39.50;17.95;;;;;;;5.88;100.00;94484.88;5044312;28;20047;-67
2021/11/02 00:27:39;;;;;;;44.58;17.27;;;;;;;5.91;100.00;94494.78;5026652;28;20049;-68
2021/11/02 00:30:12;;;;;;;35.80;17.08;;;;;;;5.93;100.00;94497.97;5043176;28;20048;-68
2021/11/02 00:32:41;;;;;;;43.22;17.23;;;;;;;5.97;100.00;94495.00;5044011;28;20557;-68
2021/11/02 00:35:10;;;;;;;44.38;16.88;;;;;;;5.99;100.00;94485.22;5027472;28;20056;-68
2021/11/02 00:37:38;;;;;;;34.17;16.30;;;;;;;6.13;100.00;94491.88;5042524;28;20045;-69
2021/11/02 00:40:08;;;;;;;34.78;15.82;;;;;;;6.17;100.00;94490.44;5025487;28;20049;-68
2021/11/02 00:42:40;;;;;;;43.10;17.15;;;;;;;6.20;100.00;94495.22;5025028;28;20045;-68
2021/11/02 00:45:12;;;;;;;34.72;15.55;;;;;;;6.20;100.00;94484.88;5043675;28;20045;-68
2021/11/02 00:47:39;;;;;;;35.53;15.00;;;;;;;6.20;100.00;94468.56;5026141;28;20055;-68
2021/11/02 00:50:12;;;;;;;46.13;16.95;;;;;;;6.37;100.00;94489.50;5044013;28;20513;-68
2021/11/02 00:52:40;;;;;;;35.05;14.60;;;;;;;6.24;100.00;94475.66;5025926;28;20498;-68
2021/11/02 00:55:08;;;;;;;40.58;16.40;;;;;;;6.39;100.00;94488.28;5044372;28;20041;-68
2021/11/02 00:57:35;;;;;;;34.10;15.07;;;;;;;6.41;100.00;94464.78;5043482;28;20048;-68
2021/11/02 01:00:10;;;;;;;35.30;15.68;;;;;;;6.47;100.00;94464.72;5043937;28;20044;-68
2021/11/02 01:02:37;;;;;;;42.88;18.50;;;;;;;6.38;100.00;94470.41;5039916;28;20064;-68
2021/11/02 01:05:05;;;;;;;40.45;17.90;;;;;;;6.31;100.00;94466.06;5042847;28;20108;-68
2021/11/02 01:07:32;;;;;;;40.72;17.50;;;;;;;6.22;100.00;94461.38;5043796;28;20052;-68
2021/11/02 01:10:01;;;;;;;38.47;16.95;;;;;;;6.21;100.00;94465.78;5042830;28;20040;-68
2021/11/02 01:12:28;;;;;;;47.30;16.25;;;;;;;6.13;100.00;94473.78;5041313;28;20478;-68
2021/11/02 01:14:55;;;;;;;30.92;13.57;;;;;;;6.00;100.00;94473.91;5024426;28;20140;-68
2021/11/02 01:17:21;;;;;;;35.78;15.55;;;;;;;6.00;100.00;94464.34;5024694;28;20059;-68
2021/11/02 01:19:49;;;;;;;38.40;16.75;;;;;;;5.98;100.00;94468.13;5041966;28;20041;-68
2021/11/02 01:22:18;;;;;;;34.53;16.02;;;;;;;6.07;100.00;94461.72;5025490;28;20053;-68
2021/11/02 01:24:45;;;;;;;40.63;17.17;;;;;;;6.17;100.00;94459.41;5024569;28;20129;-67
2021/11/02 01:27:12;;;;;;;33.42;13.52;;;;;;;5.98;100.00;94447.44;5025158;28;20056;-68
2021/11/02 01:29:39;;;;;;;37.17;14.52;;;;;;;5.89;100.00;94458.03;5043800;28;20045;-68
2021/11/02 01:32:08;;;;;;;36.13;16.90;;;;;;;6.03;100.00;94463.13;5025901;28;20048;-68
2021/11/02 01:34:42;;;;;;;33.60;13.82;;;;;;;5.94;100.00;94455.63;5025129;28;20033;-69
2021/11/02 01:37:08;;;;;;;47.10;17.27;;;;;;;5.98;100.00;94460.38;5042774;28;20047;-68
2021/11/02 01:39:37;;;;;;;43.80;18.95;;;;;;;5.99;100.00;94461.97;5025537;28;20128;-68
2021/11/02 01:42:04;;;;;;;44.85;18.90;;;;;;;6.03;100.00;94463.94;5025010;28;20067;-68
2021/11/02 01:44:31;;;;;;;39.50;16.13;;;;;;;6.17;100.00;94456.84;5024896;28;20059;-69
2021/11/02 01:46:58;;;;;;;39.35;18.20;;;;;;;6.21;100.00;94455.44;5024541;28;20573;-68
2021/11/02 01:49:29;;;;;;;45.47;18.63;;;;;;;6.26;100.00;94452.19;5026314;28;20052;-68
2021/11/02 01:51:56;;;;;;;35.00;16.85;;;;;;;6.30;100.00;94453.34;5046450;28;20418;-68
2021/11/02 01:54:23;;;;;;;37.17;16.92;;;;;;;6.34;100.00;94445.94;5028318;28;20037;-68
2021/11/02 01:56:50;;;;;;;45.00;17.83;;;;;;;6.39;100.00;94440.94;5046696;28;20029;-69
2021/11/02 01:59:25;;;;;;;39.63;18.20;;;;;;;6.47;100.00;94430.31;5028754;28;20037;-69
2021/11/02 02:02:36;;;;;;;38.00;15.68;;;;;;;6.52;100.00;94427.88;5027502;28;20049;-69
2021/11/02 02:05:15;;;;;;;38.00;15.32;;;;;;;6.54;100.00;94420.69;5028293;28;20849;-69
2021/11/02 02:08:13;;;;;;;38.20;16.20;;;;;;;6.55;100.00;94403.34;5028114;28;20053;-69
2021/11/02 02:10:59;;;;;;;44.67;18.30;;;;;;;6.58;100.00;94408.09;5028465;28;20045;-69
2021/11/02 02:13:41;;;;;;;37.22;17.45;;;;;;;6.44;100.00;94412.63;5027950;28;20531;-69
2021/11/02 02:16:21;;;;;;;37.92;16.40;;;;;;;6.41;100.00;94418.22;5029151;28;20072;-69
2021/11/02 02:19:32;;;;;;;32.85;14.73;;;;;;;6.36;100.00;94405.16;5029363;28;20433;-69
2021/11/02 02:22:20;;;;;;;30.83;15.35;;;;;;;6.30;100.00;94407.59;5028586;28;20175;-70
2021/11/02 02:25:10;;;;;;;35.78;14.63;;;;;;;6.26;100.00;94411.59;5027664;28;20059;-69
2021/11/02 02:27:44;;;;;;;34.92;14.45;;;;;;;6.29;100.00;94398.25;5028398;28;20403;-69
2021/11/02 02:30:15;;;;;;;40.55;17.10;;;;;;;6.38;100.00;94397.97;5029540;28;20049;-69
2021/11/02 02:32:49;;;;;;;35.90;14.57;;;;;;;6.43;100.00;94380.78;5027499;28;20533;-69
2021/11/02 02:35:18;;;;;;;32.58;14.27;;;;;;;6.43;100.00;94380.00;5028384;28;20039;-68
2021/11/02 02:37:49;;;;;;;35.97;14.85;;;;;;;6.41;100.00;94376.81;5027260;28;20126;-69
2021/11/02 02:40:18;;;;;;;37.85;15.88;;;;;;;6.59;100.00;94389.78;5046152;28;20076;-69
2021/11/02 02:42:48;;;;;;;36.63;16.10;;;;;;;6.60;100.00;94365.47;5027457;28;20098;-69
2021/11/02 02:45:18;;;;;;;31.17;14.52;;;;;;;6.63;100.00;94353.91;5027066;28;20041;-68
2021/11/02 02:47:49;;;;;;;31.70;15.73;;;;;;;6.69;100.00;94343.47;5027877;28;20049;-69
2021/11/02 02:50:18;;;;;;;39.50;15.55;;;;;;;6.61;100.00;94330.03;5028194;28;20048;-69
2021/11/02 02:52:48;;;;;;;36.92;16.55;;;;;;;6.82;100.00;94352.06;5027500;28;20230;-69
2021/11/02 02:55:16;;;;;;;37.53;15.10;;;;;;;6.84;100.00;94340.50;5026420;28;20086;-69
2021/11/02 02:57:45;;;;;;;32.63;15.07;;;;;;;6.87;100.00;94334.09;5027931;28;20045;-69
2021/11/02 03:00:16;;;;;;;42.33;17.85;;;;;;;6.77;100.00;94323.47;5026956;28;20136;-69
2021/11/02 03:02:46;;;;;;;33.95;14.95;;;;;;;6.82;100.00;94332.16;5023327;28;20046;-69
2021/11/02 03:05:18;;;;;;;34.15;15.68;;;;;;;6.76;100.00;94327.06;5024469;28;20140;-70
2021/11/02 03:07:47;;;;;;;39.35;15.85;;;;;;;6.92;100.00;94352.34;5023872;28;20038;-69
2021/11/02 03:10:14;;;;;;;40.85;16.13;;;;;;;6.93;100.00;94364.25;5024269;28;20045;-69
2021/11/02 03:12:47;;;;;;;39.15;15.68;;;;;;;6.98;100.00;94368.78;5021693;28;20141;-69
2021/11/02 03:18:53;;;;;;;37.95;17.83;;;;;;;7.12;100.00;94366.84;5023825;28;20111;-69
2021/11/02 03:43:33;;;;;;;26.07;13.60;;;;;;;7.15;100.00;94350.84;5023914;28;20077;-69
2021/11/02 03:49:53;;;;;;;40.33;17.08;;;;;;;6.86;100.00;94317.78;5023094;28;20065;-70
2021/11/02 03:55:07;;;;;;;29.08;13.98;;;;;;;6.79;100.00;94300.72;5022930;28;20045;-70
2021/11/02 03:57:52;;;;;;;26.90;12.73;;;;;;;6.69;100.00;94304.63;5023814;28;20045;-70
2021/11/02 04:00:32;;;;;;;;;;;;;;;6.67;100.00;94304.06;5023749;28;20052;-70
2021/11/02 05:56:03;;;;;;;43.70;19.73;;;;;;;7.50;100.00;94249.88;5021203;28;20135;-70
2021/11/02 06:06:29;;;;;;;34.30;15.93;;;;;;;7.82;100.00;94242.53;5021001;28;20038;-69
2021/11/02 06:09:36;;;;;;;42.50;18.67;;;;;;;7.86;100.00;94245.44;5020574;28;20071;-69
2021/11/02 06:28:59;;;;;;;34.30;15.35;;;;;;;8.08;100.00;94237.84;5021056;28;20226;-70
2021/11/02 06:31:34;;;;;;;29.10;14.18;;;;;;;8.11;100.00;94239.22;5017712;28;20056;-70
2021/11/02 06:34:20;;;;;;;35.63;18.33;;;;;;;8.08;100.00;94230.06;5020439;28;20119;-70
2021/11/02 06:45:18;;;;;;;29.38;14.57;;;;;;;8.17;100.00;94244.25;5008924;28;20065;-69
2021/11/02 06:48:00;;;;;;;28.67;12.93;;;;;;;8.09;100.00;94230.88;5025538;28;20052;-69
2021/11/02 06:53:44;;;;;;;29.67;13.43;;;;;;;8.16;100.00;94244.50;5024482;28;20048;-69
2021/11/02 07:17:19;;;;;;;39.47;19.23;;;;;;;8.37;100.00;94236.09;5002844;28;20049;-68
2021/11/02 07:19:28;;;;;;;40.15;15.95;;;;;;;8.47;100.00;94247.69;4997722;28;20061;-68
2021/11/02 07:24:36;;;;;;;45.10;17.48;;;;;;;8.38;100.00;94239.47;5005094;28;20046;-68
2021/11/02 08:48:27;;;;;;;39.00;15.77;;;;;;;8.16;100.00;94227.13;5023393;28;20057;-69
2021/11/02 08:50:55;;;;;;;39.70;17.63;;;;;;;8.14;100.00;94229.16;5038874;28;20052;-69
2021/11/02 08:53:25;;;;;;;36.42;16.10;;;;;;;8.15;100.00;94224.75;5037599;28;20297;-69
2021/11/02 08:55:52;;;;;;;32.95;14.30;;;;;;;8.18;100.00;94235.47;5042851;28;20399;-69
2021/11/02 08:58:22;;;;;;;28.25;14.35;;;;;;;8.23;100.00;94217.41;5043081;28;20099;-69
2021/11/02 09:00:49;;;;;;;31.60;14.50;;;;;;;8.22;100.00;94231.38;5043703;28;20112;-69
2021/11/02 09:03:23;;;;;;;36.97;13.68;;;;;;;8.37;100.00;94243.06;5043878;28;20064;-70
2021/11/02 09:05:55;;;;;;;37.22;16.75;;;;;;;8.27;100.00;94245.47;5024088;28;20048;-70
2021/11/02 09:08:24;;;;;;;35.80;15.88;;;;;;;8.27;100.00;94237.69;5022880;28;20053;-70
2021/11/02 09:10:52;;;;;;;37.22;16.10;;;;;;;8.41;100.00;94254.56;5036861;28;20048;-70
2021/11/02 09:13:22;;;;;;;41.15;16.77;;;;;;;8.43;100.00;94234.41;5040228;28;20041;-69
2021/11/02 09:15:54;;;;;;;38.83;15.43;;;;;;;8.36;100.00;94249.28;5044123;28;20049;-70
2021/11/02 09:18:24;;;;;;;32.25;14.13;;;;;;;8.30;100.00;94242.41;5044138;28;20136;-70
2021/11/02 09:20:51;;;;;;;31.13;13.65;;;;;;;8.47;100.00;94253.66;5039890;28;20044;-70
2021/11/02 09:23:19;;;;;;;32.30;13.85;;;;;;;8.43;100.00;94270.72;5039584;28;20063;-71
2021/11/02 09:25:48;;;;;;;38.38;15.98;;;;;;;8.49;100.00;94277.59;5043051;28;20505;-70
2021/11/02 09:28:15;;;;;;;59.30;21.88;;;;;;;8.58;100.00;94270.22;5044824;28;20048;-70
2021/11/02 09:30:42;;;;;;;53.97;25.08;;;;;;;8.59;100.00;94267.41;5043884;28;20437;-70
2021/11/02 09:33:09;;;;;;;55.13;25.45;;;;;;;8.70;100.00;94288.34;5043210;28;20056;-70
2021/11/02 09:35:38;;;;;;;35.38;16.73;;;;;;;8.45;100.00;94294.63;5041466;28;20036;-69
2021/11/02 09:38:27;;;;;;;32.75;14.82;;;;;;;8.50;100.00;94299.94;5043734;28;20498;-69
2021/11/02 09:41:50;;;;;;;30.38;12.63;;;;;;;8.40;100.00;94284.91;5044350;28;20048;-69
2021/11/02 09:45:00;;;;;;;31.10;13.38;;;;;;;8.35;100.00;94276.25;5013688;28;20053;-70
2021/11/02 09:48:06;;;;;;;30.70;13.50;;;;;;;8.31;100.00;94265.53;5001800;28;20048;-69
2021/11/02 09:50:55;;;;;;;31.30;14.10;;;;;;;8.23;100.00;94264.09;5040023;28;20056;-69
2021/11/02 09:54:01;;;;;;;33.45;14.32;;;;;;;8.28;100.00;94252.22;5039500;28;20049;-69
2021/11/02 09:56:47;;;;;;;33.72;14.30;;;;;;;8.26;100.00;94247.28;5039860;28;20037;-69
2021/11/02 09:59:39;;;;;;;57.13;22.42;;;;;;;8.17;100.00;94241.66;5042164;28;20053;-69
2021/11/02 10:02:24;;;;;;;53.67;22.10;;;;;;;8.07;100.00;94223.31;5038318;28;20116;-69
2021/11/02 10:05:02;;;;;;;62.58;24.13;;;;;;;8.06;100.00;94216.53;5036845;28;20041;-69
2021/11/02 10:07:36;;;;;;;69.68;30.90;;;;;;;8.12;100.00;94210.44;5040630;28;20075;-69
2021/11/02 10:10:21;;;;;;;66.00;29.20;;;;;;;8.06;100.00;94182.81;5038212;28;20036;-69
2021/11/02 10:12:56;;;;;;;43.20;19.23;;;;;;;8.18;100.00;94180.97;5044520;28;20041;-69
2021/11/02 10:15:37;;;;;;;57.83;24.45;;;;;;;8.09;100.00;94173.81;5045111;28;20045;-69
2021/11/02 10:18:37;;;;;;;49.92;18.63;;;;;;;8.00;100.00;94160.41;5045809;28;20051;-69
2021/11/02 10:21:24;;;;;;;33.72;17.77;;;;;;;8.01;100.00;94151.59;5031011;28;20068;-68
2021/11/02 10:24:25;;;;;;;41.50;19.60;;;;;;;8.03;100.00;94154.75;5045850;28;20041;-68
2021/11/02 10:27:14;;;;;;;34.33;15.27;;;;;;;8.03;100.00;94149.56;5044500;28;20055;-70
2021/11/02 10:29:55;;;;;;;32.22;15.70;;;;;;;7.95;100.00;94142.16;5046112;28;20041;-69
2021/11/02 10:32:31;;;;;;;29.27;13.40;;;;;;;7.96;100.00;94144.53;5039630;28;20171;-69
2021/11/02 10:35:26;;;;;;;24.98;12.32;;;;;;;8.03;100.00;94154.75;5046020;28;20041;-69
2021/11/02 10:38:09;;;;;;;30.10;13.38;;;;;;;8.07;100.00;94139.50;5045721;28;20521;-69
2021/11/02 10:40:58;;;;;;;23.40;11.10;;;;;;;8.11;100.00;94141.44;5045379;28;20080;-69
2021/11/02 10:44:06;;;;;;;18.83;8.32;;;;;;;8.13;100.00;94134.19;5026224;28;20056;-69
2021/11/02 10:46:35;;;;;;;18.92;7.63;;;;;;;8.14;100.00;94145.34;5044630;28;20157;-70
2021/11/02 10:49:16;;;;;;;19.45;9.23;;;;;;;8.21;100.00;94140.81;5024762;28;20052;-69
2021/11/02 10:52:05;;;;;;;19.85;10.88;;;;;;;8.27;100.00;94128.75;5026719;28;20150;-69
2021/11/02 10:54:32;;;;;;;26.05;13.07;;;;;;;8.26;100.00;94146.09;5041194;28;20033;-69
2021/11/02 10:57:27;;;;;;;21.20;9.50;;;;;;;8.42;100.00;94134.19;5043565;28;20032;-70
2021/11/02 11:00:02;;;;;;;19.83;8.88;;;;;;;8.50;100.00;94128.66;5041638;28;20042;-70
2021/11/02 11:02:31;;;;;;;21.73;7.38;;;;;;;8.53;100.00;94128.16;5020473;28;20060;-70
2021/11/02 11:04:59;;;;;;;14.15;8.23;;;;;;;8.50;100.00;94126.03;5042304;28;20060;-70
2021/11/02 11:07:28;;;;;;;20.23;9.90;;;;;;;8.58;100.00;94125.66;5041709;28;20065;-71
2021/11/02 11:09:55;;;;;;;21.35;9.45;;;;;;;8.59;100.00;94127.22;5043238;28;20045;-70
2021/11/02 11:12:23;;;;;;;17.55;8.93;;;;;;;8.61;100.00;94120.00;5039130;28;20472;-70
2021/11/02 11:14:53;;;;;;;19.38;9.02;;;;;;;8.77;100.00;94126.22;5043054;28;20056;-70
2021/11/02 11:17:27;;;;;;;24.60;10.65;;;;;;;8.88;100.00;94145.34;5045950;28;20048;-70
2021/11/02 11:20:08;;;;;;;24.02;10.18;;;;;;;9.03;100.00;94144.00;5041784;28;20076;-69
2021/11/02 11:22:48;;;;;;;26.58;12.73;;;;;;;9.24;100.00;94158.84;5040809;28;20044;-70
2021/11/02 11:25:16;;;;;;;26.33;11.38;;;;;;;9.38;100.00;94144.50;5043958;28;20048;-71
2021/11/02 11:27:55;;;;;;;21.67;10.93;;;;;;;9.53;100.00;94119.72;5042688;28;20056;-71
2021/11/02 11:30:34;;;;;;;21.92;10.05;;;;;;;9.75;100.00;94133.50;5040914;28;20133;-70
2021/11/02 11:33:15;;;;;;;18.35;9.32;;;;;;;9.80;100.00;94134.59;5044665;28;20094;-70
2021/11/02 11:35:43;;;;;;;16.35;7.18;;;;;;;9.83;100.00;94134.09;5040619;28;20102;-70
2021/11/02 11:38:13;;;;;;;15.57;7.20;;;;;;;9.63;100.00;94135.41;5037312;28;20041;-70
2021/11/02 11:40:43;;;;;;;15.23;5.95;;;;;;;9.61;100.00;94137.47;5038413;28;20545;-70
2021/11/02 11:43:12;;;;;;;12.25;6.40;;;;;;;9.57;100.00;94137.19;5042973;28;20980;-71
2021/11/02 11:45:42;;;;;;;11.85;6.50;;;;;;;9.63;100.00;94140.63;5040752;28;20056;-71
2021/11/02 11:48:26;;;;;;;11.90;6.53;;;;;;;9.68;100.00;94132.09;5040869;28;20033;-70
2021/11/02 11:50:56;;;;;;;10.77;5.72;;;;;;;9.88;100.00;94152.38;5038350;28;20075;-71
2021/11/02 11:53:25;;;;;;;9.95;4.88;;;;;;;9.99;100.00;94143.63;5039162;28;20060;-71
2021/11/02 11:56:08;;;;;;;11.60;5.05;;;;;;;10.21;100.00;94145.44;5040351;28;20099;-70
2021/11/02 11:58:50;;;;;;;10.80;5.68;;;;;;;10.09;100.00;94137.78;5036308;28;20050;-70
2021/11/02 12:01:52;;;;;;;10.68;5.53;;;;;;;10.23;100.00;94138.97;5039574;28;20045;-70
2021/11/02 12:04:36;;;;;;;11.27;6.18;;;;;;;10.59;100.00;94151.53;5039313;28;20057;-70
2021/11/02 12:07:18;;;;;;;13.30;6.82;;;;;;;10.69;100.00;94141.22;5043033;28;20502;-71
2021/11/02 12:09:46;;;;;;;12.25;5.65;;;;;;;10.68;100.00;94118.84;5039878;28;20498;-70
2021/11/02 12:12:14;;;;;;;9.35;4.82;;;;;;;10.80;100.00;94116.81;5039432;28;20037;-70
2021/11/02 12:14:51;;;;;;;8.07;4.97;;;;;;;11.39;100.00;94128.94;5041037;28;20470;-71
2021/11/02 12:17:24;;;;;;;11.75;5.43;;;;;;;11.77;100.00;94144.50;5039079;28;20041;-71
2021/11/02 12:20:11;;;;;;;10.38;4.82;;;;;;;12.43;100.00;94130.91;5038346;28;20032;-71
2021/11/02 12:22:52;;;;;;;10.80;4.63;;;;;;;12.76;100.00;94134.84;5034877;28;20045;-70
2021/11/02 12:25:31;;;;;;;7.00;3.78;;;;;;;12.97;96.99;94134.84;5037325;28;20528;-70
2021/11/02 12:27:59;;;;;;;6.90;3.65;;;;;;;12.90;97.86;94118.66;5037561;28;20591;-70
2021/11/02 12:30:27;;;;;;;7.60;3.38;;;;;;;13.69;98.48;94116.44;5023768;28;20403;-70
2021/11/02 12:32:56;;;;;;;4.03;2.33;;;;;;;14.08;91.80;94121.75;5037341;28;20531;-70
2021/11/02 12:35:25;;;;;;;4.72;2.58;;;;;;;14.51;92.06;94113.38;5023533;28;20045;-70
2021/11/02 12:37:56;;;;;;;4.97;2.28;;;;;;;14.60;90.02;94111.75;5018379;28;20044;-70
2021/11/02 12:40:26;;;;;;;4.80;2.85;;;;;;;14.55;88.60;94109.19;5037328;28;20044;-70
2021/11/02 12:43:27;;;;;;;3.78;2.95;;;;;;;14.76;85.73;94099.31;5023916;28;20060;-71
2021/11/02 12:45:57;;;;;;;4.15;2.70;;;;;;;14.67;84.50;94101.75;5037186;28;20498;-70
2021/11/02 12:48:25;;;;;;;5.07;3.03;;;;;;;14.60;85.53;94100.50;5025417;28;20032;-70
2021/11/02 12:51:19;;;;;;;3.15;2.08;;;;;;;14.60;87.13;94109.13;5037989;28;20081;-70
2021/11/02 12:53:52;;;;;;;3.85;2.47;;;;;;;14.25;87.33;94105.69;5040106;28;20426;-70
2021/11/02 12:56:21;;;;;;;4.45;2.55;;;;;;;13.63;88.00;94114.88;5024963;28;20053;-71
2021/11/02 12:58:59;;;;;;;6.35;3.00;;;;;;;13.03;89.39;94112.88;5037048;28;20049;-71
2021/11/02 13:01:35;;;;;;;4.60;2.63;;;;;;;12.46;91.68;94103.47;5036599;28;20536;-70
2021/11/02 13:04:08;;;;;;;5.00;2.80;;;;;;;12.11;95.60;94108.38;5036578;28;20092;-70
2021/11/02 13:06:47;;;;;;;6.20;3.47;;;;;;;12.05;97.16;94112.81;5037579;28;20053;-71
2021/11/02 13:09:33;;;;;;;5.60;3.13;;;;;;;11.81;100.00;94128.09;5038658;28;20045;-70
2021/11/02 13:12:05;;;;;;;8.43;3.25;;;;;;;11.37;100.00;94125.03;5038313;28;20044;-70
2021/11/02 13:14:52;;;;;;;4.57;2.70;;;;;;;11.47;100.00;94130.31;5037303;28;20107;-70
2021/11/02 13:17:26;;;;;;;5.20;2.70;;;;;;;11.44;100.00;94130.78;5039094;28;20052;-70
2021/11/02 13:19:56;;;;;;;5.38;2.38;;;;;;;11.38;100.00;94126.56;5036620;28;20048;-70
2021/11/02 13:22:28;;;;;;;5.57;2.70;;;;;;;11.38;100.00;94131.78;5038801;28;20050;-70
2021/11/02 13:25:11;;;;;;;4.53;2.67;;;;;;;11.28;100.00;94138.53;5039247;28;20045;-70
2021/11/02 13:27:45;;;;;;;6.43;3.22;;;;;;;11.35;100.00;94132.31;5043155;28;20029;-71
2021/11/02 13:30:37;;;;;;;6.20;3.97;;;;;;;11.29;100.00;94145.31;5041359;28;20052;-71
2021/11/02 13:33:24;;;;;;;7.15;4.45;;;;;;;11.21;100.00;94143.16;5040567;28;20630;-71
2021/11/02 13:35:57;;;;;;;7.20;4.25;;;;;;;11.26;100.00;94145.81;5024873;28;20510;-70
2021/11/02 13:38:41;;;;;;;6.97;3.72;;;;;;;11.20;100.00;94139.00;5042820;28;20040;-71
2021/11/02 13:41:26;;;;;;;9.40;4.70;;;;;;;11.33;100.00;94135.16;5042276;28;20060;-70
2021/11/02 13:43:57;;;;;;;7.50;4.45;;;;;;;11.28;100.00;94128.09;5042286;28;20045;-71
2021/11/02 13:46:26;;;;;;;9.90;4.93;;;;;;;11.09;100.00;94119.09;5045858;28;20068;-72
2021/11/02 13:48:54;;;;;;;9.50;4.40;;;;;;;11.04;100.00;94116.50;5042885;28;20040;-70
2021/11/02 13:51:23;;;;;;;8.43;4.50;;;;;;;11.09;100.00;94119.91;5045420;28;20045;-71
2021/11/02 13:53:50;;;;;;;7.30;4.15;;;;;;;11.06;100.00;94111.81;5043389;28;20091;-71
2021/11/02 13:56:23;;;;;;;6.32;3.65;;;;;;;11.12;100.00;94118.63;5039116;28;20032;-71
2021/11/02 13:58:56;;;;;;;7.75;4.05;;;;;;;11.34;100.00;94109.88;5044926;28;20049;-71
2021/11/02 14:01:26;;;;;;;9.40;4.32;;;;;;;11.59;100.00;94123.03;5045759;28;20045;-70
2021/11/02 14:04:11;;;;;;;8.00;4.18;;;;;;;11.45;100.00;94116.72;5040643;28;20110;-70
2021/11/02 14:06:42;;;;;;;7.22;3.75;;;;;;;11.53;100.00;94131.09;5026989;28;20037;-70
2021/11/02 14:09:12;;;;;;;6.40;3.88;;;;;;;11.38;100.00;94126.56;5045478;28;20048;-70
2021/11/02 14:11:39;;;;;;;7.05;3.35;;;;;;;11.31;100.00;94126.00;5048014;28;20496;-71
2021/11/02 14:14:29;;;;;;;5.72;3.53;;;;;;;11.24;100.00;94137.47;5046281;28;20045;-70
2021/11/02 14:16:56;;;;;;;8.45;4.18;;;;;;;11.08;100.00;94135.78;5027938;28;20119;-70
2021/11/02 14:19:41;;;;;;;9.55;4.65;;;;;;;11.41;100.00;94141.72;5044570;28;20041;-71
2021/11/02 14:22:10;;;;;;;6.25;3.33;;;;;;;11.73;99.35;94141.63;5043595;28;20045;-69
2021/11/02 14:24:45;;;;;;;9.20;5.03;;;;;;;11.77;98.35;94136.69;5043947;28;20045;-70
2021/11/02 14:27:19;;;;;;;5.90;3.80;;;;;;;11.75;99.03;94136.16;5041809;28;20045;-71
2021/11/02 14:29:47;;;;;;;7.18;3.60;;;;;;;11.62;98.96;94143.41;5043286;28;20510;-71
2021/11/02 14:32:40;;;;;;;7.78;4.38;;;;;;;11.63;99.76;94142.38;5044493;28;20087;-71
2021/11/02 14:35:09;;;;;;;7.40;4.07;;;;;;;11.43;99.36;94150.06;5031250;28;20406;-71
2021/11/02 14:37:51;;;;;;;7.10;3.97;;;;;;;11.37;100.00;94140.66;5044095;28;20047;-70
2021/11/02 14:40:31;;;;;;;8.43;3.92;;;;;;;11.16;100.00;94135.31;5041160;28;20045;-70
2021/11/02 14:43:13;;;;;;;7.90;4.00;;;;;;;11.06;100.00;94137.88;5041268;28;20044;-71
2021/11/02 14:45:43;;;;;;;7.63;4.80;;;;;;;10.96;100.00;94145.59;5046395;28;20052;-71
2021/11/02 14:48:41;;;;;;;9.30;4.40;;;;;;;10.71;100.00;94139.16;5045975;28;20048;-70
2021/11/02 14:51:17;;;;;;;9.63;4.65;;;;;;;10.52;100.00;94139.53;5043886;28;20072;-70
2021/11/02 14:53:45;;;;;;;9.32;5.82;;;;;;;10.29;100.00;94137.97;5046458;28;20048;-70
2021/11/02 14:56:18;;;;;;;11.93;7.25;;;;;;;10.19;100.00;94160.50;5044517;28;20041;-70
2021/11/02 14:58:45;;;;;;;19.15;9.65;;;;;;;10.00;100.00;94150.44;5044417;28;20044;-71
2021/11/02 15:01:15;;;;;;;14.23;7.43;;;;;;;10.09;100.00;94154.16;5046390;28;20048;-70
2021/11/02 15:03:50;;;;;;;15.77;8.23;;;;;;;9.92;100.00;94153.44;5045558;28;20067;-69
2021/11/02 15:06:18;;;;;;;10.07;6.32;;;;;;;9.69;100.00;94147.47;5043663;28;20056;-71
2021/11/02 15:08:47;;;;;;;13.38;6.60;;;;;;;9.51;100.00;94147.78;5043220;28;20037;-70
2021/11/02 15:11:16;;;;;;;12.15;6.82;;;;;;;9.52;100.00;94149.31;5044833;28;20064;-69
2021/11/02 15:13:55;;;;;;;11.35;5.88;;;;;;;9.58;100.00;94158.78;5041600;28;20033;-71
2021/11/02 15:16:23;;;;;;;13.57;6.97;;;;;;;9.80;100.00;94165.81;5021552;28;20478;-70
2021/11/02 15:19:02;;;;;;;8.88;5.40;;;;;;;9.93;100.00;94157.63;5040788;28;20047;-71
2021/11/02 15:21:41;;;;;;;9.85;5.47;;;;;;;9.83;100.00;94160.09;5045435;28;20048;-70
2021/11/02 15:24:19;;;;;;;11.68;5.90;;;;;;;9.63;100.00;94161.41;5044869;28;20051;-71
2021/11/02 15:27:09;;;;;;;13.73;6.13;;;;;;;9.36;100.00;94162.13;5045418;28;20045;-70
2021/11/02 15:29:39;;;;;;;11.68;5.95;;;;;;;9.26;100.00;94169.78;5045343;28;20567;-70
2021/11/02 15:32:10;;;;;;;11.32;6.03;;;;;;;9.12;100.00;94165.94;5042865;28;20159;-70
2021/11/02 15:34:48;;;;;;;22.92;10.45;;;;;;;8.88;100.00;94160.91;5045730;28;20041;-70
2021/11/02 15:37:21;;;;;;;21.02;13.38;;;;;;;8.80;100.00;94163.88;5045186;28;20391;-71
2021/11/02 15:40:12;;;;;;;16.88;8.75;;;;;;;8.68;100.00;94160.56;5041319;28;20044;-70
2021/11/02 15:42:43;;;;;;;13.15;6.70;;;;;;;8.57;100.00;94165.63;5027642;28;20083;-71
2021/11/02 15:45:35;;;;;;;16.58;9.18;;;;;;;8.47;100.00;94162.84;5039728;28;20051;-70
2021/11/02 15:48:08;;;;;;;33.03;16.83;;;;;;;8.40;100.00;94164.75;5042144;28;20041;-70
2021/11/02 15:50:40;;;;;;;22.75;9.38;;;;;;;8.32;100.00;94152.16;5043670;28;20052;-70
2021/11/02 15:53:09;;;;;;;23.10;9.52;;;;;;;8.17;100.00;94153.44;5043670;28;21854;-70
2021/11/02 15:55:37;;;;;;;23.48;10.07;;;;;;;8.12;100.00;94157.75;5012670;28;20049;-70
2021/11/02 15:58:07;;;;;;;29.13;15.02;;;;;;;8.26;100.00;94168.66;5044708;28;20575;-70
2021/11/02 16:00:36;;;;;;;51.58;20.20;;;;;;;8.43;100.00;94179.91;5039689;28;20049;-71
2021/11/02 16:03:04;;;;;;;71.45;23.55;;;;;;;8.34;100.00;94165.72;5043868;28;21016;-70
2021/11/02 16:05:35;;;;;;;16.55;8.27;;;;;;;8.22;100.00;94169.13;5043850;28;20114;-70
2021/11/02 16:08:22;;;;;;;15.57;8.50;;;;;;;8.16;100.00;94175.25;5044038;28;20040;-70
2021/11/02 16:11:10;;;;;;;19.13;10.40;;;;;;;8.22;100.00;94179.50;5045399;28;20561;-71
2021/11/02 16:13:41;;;;;;;20.08;10.77;;;;;;;8.45;100.00;94188.25;5043125;28;20605;-70
2021/11/02 16:16:08;;;;;;;18.02;10.75;;;;;;;8.40;100.00;94180.34;5043073;28;20114;-71
2021/11/02 16:18:41;;;;;;;24.60;9.73;;;;;;;8.14;100.00;94177.28;5042827;28;20045;-71
2021/11/02 16:21:09;;;;;;;11.43;6.30;;;;;;;8.08;100.00;94178.19;5037531;28;20128;-71
2021/11/02 16:23:42;;;;;;;12.20;7.32;;;;;;;8.09;100.00;94190.16;5022139;28;20498;-71
2021/11/02 16:26:30;;;;;;;;;;;;;;;8.16;100.00;94200.41;5043324;28;20083;-71
2021/11/02 16:29:09;;;;;;;12.55;5.78;;;;;;;7.95;100.00;94204.41;5035932;28;19975;-71
2021/11/02 16:31:37;;;;;;;11.88;6.25;;;;;;;7.97;100.00;94197.94;5037875;28;20049;-71
2021/11/02 16:34:19;;;;;;;13.73;6.25;;;;;;;8.14;100.00;94203.22;5037818;28;20053;-71
2021/11/02 16:36:46;;;;;;;16.73;7.47;;;;;;;7.93;100.00;94196.84;5038824;28;20038;-71
2021/11/02 16:39:14;;;;;;;18.30;7.97;;;;;;;8.20;100.00;94202.28;5036717;28;20391;-71
2021/11/02 16:41:44;;;;;;;18.42;9.80;;;;;;;8.06;100.00;94190.59;5038790;28;20044;-71
2021/11/02 16:44:16;;;;;;;28.85;11.88;;;;;;;8.04;100.00;94192.66;5038260;28;20099;-71